sensor_id;sensor_type;location;lat;lon;timestamp;pressure;altitude;pressure_sealevel;temperature;humidity
61740;BME280;47645;45.288;12.038;2022-08-19T00:02:13;1010.9420152839067;;;22.31328125;83.7559362618456
61740;BME280;47645;45.288;12.038;2022-08-19T00:12:14;1011.7913269367955;;;22.3029296875;80.36064808398392
61740;BME280;47645;45.288;12.038;2022-08-19T00:22:16;1010.4389504162542;;;21.2224609375;98.623533702996
61740;BME280;47645;45.288;12.038;2022-08-19T00:32:17;1009.7811869062281;;;21.2630859375;100
61740;BME280;47645;45.288;12.038;2022-08-19T00:42:19;1007.8110533827137;;;20.345703125;100
61740;BME280;47645;45.288;12.038;2022-08-19T00:52:22;1007.3589715937009;;;20.5291015625;100
61740;BME280;47645;45.288;12.038;2022-08-19T01:02:20;1007.9108879032907;;;20.569921875;100
61740;BME280;47645;45.288;12.038;2022-08-19T01:12:22;1009.197485944001;;;21.2275390625;91.13179423726343
61740;BME280;47645;45.288;12.038;2022-08-19T01:22:28;1008.8837178293147;;;21.7626953125;88.52006567484675
61740;BME280;47645;45.288;12.038;2022-08-19T01:32:23;1009.9836278646347;;;21.92578125;85.37958435387704
61740;BME280;47645;45.288;12.038;2022-08-19T01:42:24;1008.034429258053;;;21.105078125;98.40106078680513
61740;BME280;47645;45.288;12.038;2022-08-19T01:52:25;1009.62116921891;;;21.8544921875;86.21863800420607
61740;BME280;47645;45.288;12.038;2022-08-19T02:02:27;1008.9734527812391;;;21.28359375;100
61740;BME280;47645;45.288;12.038;2022-08-19T02:12:28;1008.8355272912461;;;21.3447265625;97.53176966926645
61740;BME280;47645;45.288;12.038;2022-08-19T02:22:29;1005.5929908555174;;;20.967578125;100
61740;BME280;47645;45.288;12.038;2022-08-19T02:32:31;1004.6765981045068;;;20.880859375;96.25767229593842
61740;BME280;47645;45.288;12.038;2022-08-19T02:42:31;1005.8503753952178;;;20.6259765625;96.45281127894873
61740;BME280;47645;45.288;12.038;2022-08-19T02:52:34;1006.4106051186868;;;20.89609375;89.96134125466263
61740;BME280;47645;45.288;12.038;2022-08-19T03:02:33;1007.1912886380705;;;21.2529296875;86.04824280833998
61740;BME280;47645;45.288;12.038;2022-08-19T03:12:36;1007.5805501353458;;;21.3650390625;86.03193221710458
61740;BME280;47645;45.288;12.038;2022-08-19T03:22:35;1007.4552514995468;;;20.9470703125;87.72378706609683
61740;BME280;47645;45.288;12.038;2022-08-19T03:32:36;1007.6202645875794;;;20.99296875;89.04190724932296
61740;BME280;47645;45.288;12.038;2022-08-19T03:42:37;1008.0429579197312;;;21.3244140625;81.44841168907767
61740;BME280;47645;45.288;12.038;2022-08-19T03:52:39;1008.2124895909513;;;21.3294921875;81.88225130454067
61740;BME280;47645;45.288;12.038;2022-08-19T04:02:39;1008.1606987845554;;;21.6556640625;77.80328338464426
61740;BME280;47645;45.288;12.038;2022-08-19T04:12:40;1008.35096438969;;;21.212109375;81.85277678497813
61740;BME280;47645;45.288;12.038;2022-08-19T04:22:41;1008.301964670612;;;21.084765625;82.04105966671752
61740;BME280;47645;45.288;12.038;2022-08-19T04:32:44;1008.4556862260063;;;21.084765625;82.90424891355782
61740;BME280;47645;45.288;12.038;2022-08-19T04:42:43;1008.7348942962784;;;20.957421875;83.33523705877002
61740;BME280;47645;45.288;12.038;2022-08-19T04:52:44;1008.7947701012964;;;20.580078125;89.3429443144065
61740;BME280;47645;45.288;12.038;2022-08-19T05:02:45;1008.9592789046291;;;20.8349609375;83.12374571151814
61740;BME280;47645;45.288;12.038;2022-08-19T05:12:46;1008.8268930670079;;;20.5087890625;88.40160997310936
61740;BME280;47645;45.288;12.038;2022-08-19T05:22:47;1008.5455783382974;;;20.3966796875;89.75827941742568
61740;BME280;47645;45.288;12.038;2022-08-19T05:32:48;1008.5721750484205;;;20.4884765625;89.72325238920838
61740;BME280;47645;45.288;12.038;2022-08-19T05:42:50;1008.3047098985217;;;20.1826171875;91.86491722334996
61740;BME280;47645;45.288;12.038;2022-08-19T05:52:50;1008.1704033271964;;;20.4578125;92.09493992452833
61740;BME280;47645;45.288;12.038;2022-08-19T06:02:51;1007.9827169016139;;;20.76875;91.81560652311377
61740;BME280;47645;45.288;12.038;2022-08-19T06:12:53;1008.1209232948111;;;21.20703125;88.35159546319687
61740;BME280;47645;45.288;12.038;2022-08-19T06:22:54;1008.1437521968464;;;21.5283203125;84.42377368067116
61740;BME280;47645;45.288;12.038;2022-08-19T06:32:54;1007.8920466093914;;;22.0837890625;84.01758499460837
61740;BME280;47645;45.288;12.038;2022-08-19T06:42:56;1008.0450787283273;;;22.5068359375;80.57275165004812
61740;BME280;47645;45.288;12.038;2022-08-19T06:52:57;1007.7999034552911;;;22.3744140625;81.19284070961695
61740;BME280;47645;45.288;12.038;2022-08-19T07:02:59;1007.6288754357051;;;22.4662109375;79.03504295665367
61740;BME280;47645;45.288;12.038;2022-08-19T07:12:59;1007.8197358250966;;;22.659765625;78.8288996072594
61740;BME280;47645;45.288;12.038;2022-08-19T07:23:00;1007.6783288111396;;;22.4048828125;78.30029628494337
61740;BME280;47645;45.288;12.038;2022-08-19T07:33:01;1008.0107603306186;;;22.3896484375;79.13674582588703
61740;BME280;47645;45.288;12.038;2022-08-19T07:43:02;1008.1831865065665;;;22.037890625;80.90627110089578
61740;BME280;47645;45.288;12.038;2022-08-19T07:53:03;1008.5106881179689;;;22.0125;80.23776539294654
61740;BME280;47645;45.288;12.038;2022-08-19T08:03:04;1010.0881854089936;;;22.7005859375;75.24244372131986
61740;BME280;47645;45.288;12.038;2022-08-19T08:13:05;1009.8622924131081;;;22.6802734375;74.6745627306839
61740;BME280;47645;45.288;12.038;2022-08-19T08:23:39;1009.3553657197209;;;22.6087890625;73.44124966538051
61740;BME280;47645;45.288;12.038;2022-08-19T08:33:08;1009.1858579390796;;;22.455859375;73.70443829179632
61740;BME280;47645;45.288;12.038;2022-08-19T08:43:19;1009.009955027346;;;21.08984375;82.34774462743049
61740;BME280;47645;45.288;12.038;2022-08-19T08:53:10;1008.9488677880138;;;21.9513671875;80.61941979258098
61740;BME280;47645;45.288;12.038;2022-08-19T09:03:18;1008.763890420438;;;22.5375;74.28056351287229
61740;BME280;47645;45.288;12.038;2022-08-19T09:13:20;1008.8540732518521;;;23.348046875;70.003356300968
61740;BME280;47645;45.288;12.038;2022-08-19T09:23:13;1008.9109575160437;;;23.6181640625;69.98039389702056
61740;BME280;47645;45.288;12.038;2022-08-19T09:33:14;1008.6434852446599;;;23.8984375;68.34165741736686
61740;BME280;47645;45.288;12.038;2022-08-19T09:43:15;1008.5644396509847;;;24.3470703125;66.47799594754883
61740;BME280;47645;45.288;12.038;2022-08-19T09:53:16;1008.6571364559777;;;24.5357421875;64.58551376823968
61740;BME280;47645;45.288;12.038;2022-08-19T10:03:19;1009.1272911486064;;;24.4796875;66.50317532768547
61740;BME280;47645;45.288;12.038;2022-08-19T10:13:24;1008.973149611859;;;24.2552734375;67.7373557667536
61740;BME280;47645;45.288;12.038;2022-08-19T10:23:21;1008.7903885367969;;;24.5357421875;64.91401891429953
61740;BME280;47645;45.288;12.038;2022-08-19T10:33:21;1008.9656716886302;;;24.3267578125;66.78172033256047
61740;BME280;47645;45.288;12.038;2022-08-19T10:43:24;1008.8135297806746;;;23.969921875;72.76801530492185
61740;BME280;47645;45.288;12.038;2022-08-19T10:53:27;1008.7064696135699;;;24.301171875;71.73108920650861
61740;BME280;47645;45.288;12.038;2022-08-19T11:03:26;1009.1241020533308;;;25.1576171875;64.26689265933213
61740;BME280;47645;45.288;12.038;2022-08-19T11:13:28;1009.2061820164604;;;25.8966796875;60.743392725775564
61740;BME280;47645;45.288;12.038;2022-08-19T11:23:28;1009.3701681432924;;;26.360546875;61.17956509068753
61740;BME280;47645;45.288;12.038;2022-08-19T11:33:32;1009.2346941482698;;;27.26796875;58.031355090704864
61740;BME280;47645;45.288;12.038;2022-08-19T11:43:29;1009.0011835942786;;;27.7064453125;58.16385057394143
61740;BME280;47645;45.288;12.038;2022-08-19T11:53:37;1008.7502119391576;;;28.60859375;55.00827559859776
61740;BME280;47645;45.288;12.038;2022-08-19T12:03:33;1008.6457794093117;;;29.108203125;52.037966380080285
61740;BME280;47645;45.288;12.038;2022-08-19T12:13:34;1008.5913990008356;;;29.50078125;52.035297580271504
61740;BME280;47645;45.288;12.038;2022-08-19T12:23:35;1008.5751977517492;;;29.505859375;51.95891229114745
61740;BME280;47645;45.288;12.038;2022-08-19T12:33:35;1008.519333063037;;;29.6892578125;51.04627906183622
61740;BME280;47645;45.288;12.038;2022-08-19T12:43:37;1008.5375009482156;;;29.9953125;50.350976688286785
61740;BME280;47645;45.288;12.038;2022-08-19T12:53:38;1008.5237120911413;;;30.2603515625;50.736322593653135
61740;BME280;47645;45.288;12.038;2022-08-19T13:03:39;1008.6903367536377;;;29.7658203125;49.36414702842422
61740;BME280;47645;45.288;12.038;2022-08-19T13:13:43;1008.7811100960113;;;30.708984375;49.386072053158216
61740;BME280;47645;45.288;12.038;2022-08-19T13:23:42;1008.9501820234452;;;31.4888671875;48.6122454687076
61740;BME280;47645;45.288;12.038;2022-08-19T13:33:44;1008.8563035790103;;;31.8966796875;47.69553072340678
61740;BME280;47645;45.288;12.038;2022-08-19T13:43:45;1008.8210777596844;;;31.9986328125;47.761346791985396
61740;BME280;47645;45.288;12.038;2022-08-19T13:53:46;1008.9612591514883;;;32.126171875;47.59253749132185
61740;BME280;47645;45.288;12.038;2022-08-19T14:03:52;1008.8992010342646;;;32.2484375;47.72356738841819
61740;BME280;47645;45.288;12.038;2022-08-19T14:13:50;1008.9114799602637;;;32.6001953125;46.3735986083515
61740;BME280;47645;45.288;12.038;2022-08-19T14:23:52;1008.9262976686597;;;32.6818359375;46.32723518962255
61740;BME280;47645;45.288;12.038;2022-08-19T14:33:53;1008.7893912028125;;;33.13046875;43.458634687493166
61740;BME280;47645;45.288;12.038;2022-08-19T14:43:54;1008.8246898316592;;;32.7939453125;46.186765444141855
61740;BME280;47645;45.288;12.038;2022-08-19T14:53:56;1008.7245825276481;;;32.748046875;41.953744670869
61740;BME280;47645;45.288;12.038;2022-08-19T15:03:57;1008.820726970961;;;31.962890625;48.354701413529284
61740;BME280;47645;45.288;12.038;2022-08-19T15:13:59;1008.785162917393;;;32.325;47.85381893570038
61740;BME280;47645;45.288;12.038;2022-08-19T15:24:02;1008.7748823251156;;;33.135546875;44.44398711857803
61740;BME280;47645;45.288;12.038;2022-08-19T15:34:03;1008.6653929915996;;;32.8806640625;45.332927321146336
61740;BME280;47645;45.288;12.038;2022-08-19T15:44:07;1008.5960260133775;;;32.8755859375;45.63357384495957
61740;BME280;47645;45.288;12.038;2022-08-19T15:54:08;1008.5145176542059;;;32.14140625;48.75698722055895
61740;BME280;47645;45.288;12.038;2022-08-19T16:14:09;1008.7016985377194;;;30.540625;53.38125053479555
61740;BME280;47645;45.288;12.038;2022-08-19T16:24:12;1008.6782589792766;;;30.53046875;53.152949662531725
61740;BME280;47645;45.288;12.038;2022-08-19T16:34:13;1008.7722708288132;;;30.2501953125;53.67806065046245
61740;BME280;47645;45.288;12.038;2022-08-19T16:44:14;1008.920166317042;;;29.7404296875;55.012934509545836
61740;BME280;47645;45.288;12.038;2022-08-19T16:54:14;1008.9159370141012;;;29.516015625;55.30382290277496
61740;BME280;47645;45.288;12.038;2022-08-19T17:04:16;1008.9996128441883;;;28.991015625;57.268632125200185
61740;BME280;47645;45.288;12.038;2022-08-19T17:14:19;1009.0033668859437;;;28.7259765625;57.88225169457195
61740;BME280;47645;45.288;12.038;2022-08-19T17:24:19;1008.9520669995981;;;28.49140625;58.29788667508311
61740;BME280;47645;45.288;12.038;2022-08-19T17:34:20;1008.9596295123109;;;28.0376953125;59.349648611208714
61740;BME280;47645;45.288;12.038;2022-08-19T17:44:22;1009.1029715108131;;;27.6451171875;61.144104680606496
61740;BME280;47645;45.288;12.038;2022-08-19T17:54:23;1009.1880531605154;;;27.26796875;62.361018812784955
61740;BME280;47645;45.288;12.038;2022-08-19T18:04:25;1009.2796887158776;;;26.941796875;63.53784452639716
61740;BME280;47645;45.288;12.038;2022-08-19T18:14:31;1009.483279495353;;;26.6052734375;64.78131926141886
61740;BME280;47645;45.288;12.038;2022-08-19T18:24:27;1009.5909228887151;;;26.2740234375;65.83242173588259
61740;BME280;47645;45.288;12.038;2022-08-19T18:34:29;1009.6273202668996;;;26.0751953125;66.35206424512113
61740;BME280;47645;45.288;12.038;2022-08-19T18:54:32;1009.9925170633131;;;25.5958984375;67.75417573720821
61740;BME280;47645;45.288;12.038;2022-08-19T19:04:37;1010.0324579635802;;;25.300390625;68.61763131353403
61740;BME280;47645;45.288;12.038;2022-08-19T19:14:37;1010.0903832160594;;;25.1984375;68.9057869238079
61740;BME280;47645;45.288;12.038;2022-08-19T19:24:39;1010.071997287181;;;24.9892578125;69.81768426740913
61740;BME280;47645;45.288;12.038;2022-08-19T19:34:40;1010.034675108706;;;24.7396484375;70.35962105072257
61740;BME280;47645;45.288;12.038;2022-08-19T19:44:40;1010.0545594788734;;;24.2451171875;71.17023877105443
61740;BME280;47645;45.288;12.038;2022-08-19T19:54:42;1010.1813199732534;;;24.0462890625;71.69547796175715
61740;BME280;47645;45.288;12.038;2022-08-19T20:04:40;1010.2337005021304;;;23.8322265625;71.45667613616045
61740;BME280;47645;45.288;12.038;2022-08-19T20:14:43;1010.3373513675808;;;23.658984375;72.25405940384391
61740;BME280;47645;45.288;12.038;2022-08-19T20:24:46;1010.3373946107156;;;23.7201171875;71.46682832091197
61740;BME280;47645;45.288;12.038;2022-08-19T20:34:50;1010.4508027921261;;;23.3990234375;72.56660365364004
61740;BME280;47645;45.288;12.038;2022-08-19T20:44:47;1010.3937390501359;;;23.485546875;72.08067134493542
61740;BME280;47645;45.288;12.038;2022-08-19T20:54:49;1010.4179150293186;;;23.261328125;72.51130783529048
61740;BME280;47645;45.288;12.038;2022-08-19T21:04:49;1010.4055649761789;;;23.077734375;73.57855508237974
61740;BME280;47645;45.288;12.038;2022-08-19T21:14:50;1010.5458403459849;;;23.1900390625;72.56913126999962
61740;BME280;47645;45.288;12.038;2022-08-19T21:24:50;1010.4473663913761;;;22.9810546875;73.15428253968155
61740;BME280;47645;45.288;12.038;2022-08-19T21:34:52;1010.6283850134164;;;22.853515625;73.84353156450015
61740;BME280;47645;45.288;12.038;2022-08-19T21:44:53;1010.78473321532;;;22.9146484375;72.46853532983855
61740;BME280;47645;45.288;12.038;2022-08-19T21:54:55;1010.9463065419735;;;22.746484375;73.56080348774097
61740;BME280;47645;45.288;12.038;2022-08-19T22:04:55;1010.8187432263446;;;22.54765625;73.49384458154138
61740;BME280;47645;45.288;12.038;2022-08-19T22:14:57;1010.8063681323573;;;22.522265625;73.65684351262658
61740;BME280;47645;45.288;12.038;2022-08-19T22:25:01;1010.832252378685;;;22.5171875;73.45233237989517
61740;BME280;47645;45.288;12.038;2022-08-19T22:34:59;1010.9015294477038;;;22.3998046875;73.50036468040621
61740;BME280;47645;45.288;12.038;2022-08-19T22:45:00;1010.7810897156155;;;22.440625;72.72157063712648
61740;BME280;47645;45.288;12.038;2022-08-19T22:55:05;1010.6774678703774;;;22.3845703125;72.43722004315309
61740;BME280;47645;45.288;12.038;2022-08-19T23:05:04;1010.7804554007193;;;22.2572265625;73.29638676554598
61740;BME280;47645;45.288;12.038;2022-08-19T23:15:05;1010.8246535793992;;;22.3029296875;72.39135584207332
61740;BME280;47645;45.288;12.038;2022-08-19T23:20:05;1010.8942491473348;;;22.2724609375;72.35987522500662
61740;BME280;47645;45.288;12.038;2022-08-19T23:30:40;1010.7946944711466;;;22.241796875;71.91327468182388
61740;BME280;47645;45.288;12.038;2022-08-19T23:40:07;1010.7859153154429;;;22.231640625;71.88435561576726
61740;BME280;47645;45.288;12.038;2022-08-19T23:50:08;1010.7820240039804;;;21.9869140625;72.83584255228654
